Apple River, Illinois
Current Conditions -  °F | °C
As of 3:55 PM on Saturday 25 Oct 2014 (Local Time) from KPVB Reporting Station
Clear Clear  
Wind Chill: 67°   Ceiling: Unl
Heat Index: 67°   Visibility: 10mi
Dew Point: 28°   Wind: 14mph
Humidity: 23%   Direction: 290°WNW
Pressure: 29.99"   Gusts: NA
Location:  42.51°N, 90.1°W
Report Text: KPVB 252055Z AUTO 29012KT 10SM CLR 20/M02 A2999 RMK AO1 T01971020
Loading
Personal Weather Stations






























Interactive Weather Map
Tropical Storm Tracking
New forecast layout! Learn more

10-Day Weather Forecast

Advertisements
Track Severe Weather on mobile